« 2010年4月 | トップページ | 2010年6月 »

2010年5月

2010年5月30日 (日)

モグラを飛ばして、電波も飛ばした週末(笑)

土曜日

RJAA 290300Z 05008KT 010V100 9999 BKN020 BKN040 16/11 Q1011 BECMG 07008KT
RJAA 290600Z 04011KT 9999 SCT015 BKN035 15/11 Q1011 NOSIG
RJAA 290900Z 03008KT 360V060 9999 FEW015 BKN040 BKN060 15/10 Q1011 NOSIG

予報どおりあまり天気がよくなかった。
飛行場からの「呟き」に誘われて、飛行場に集まった人がちらほらいましたが、そ
れでも飛べる天気でした。ガスターtyphoonはこんな天気の中、NAV訓練に最適
(と言ったか定かでは無い)とラーメン大好きK教官と栃木までナビゲーション
訓練です。

・栃木駅が見つからずロスポジに100円!
・否、小山駅を栃木駅と間違えるに50円!

とか、外野は好き勝手に遊んでいました(笑)
夕飯はご近所の(最近、飛行場に通う為にマイハウスを購入したS本夫妻とも言う)クラブ
員の方と安食駅のラーメンを食べに行きました。

Photo_5
安食の「手打らーめん さど」でしぐれラーメン定食を食べる

---------------------------------------------------------------------------

日曜日
RJAA 292100Z 02007KT 9999 SCT020 BKN045 12/10 Q1012 NOSIGRJAA
300000Z 04010KT 9999 BKN015 BKN050 14/10 Q1013 NOSIG
RJAA 300300Z 04011KT 010V070 9999 FEW020 BKN025 BKN050 15/09 Q1013 NOSIG
RJAA 300600Z 06010KT 010V080 9999 FEW020 SCT035 BKN050 16/08 Q1012 BECMG 05010KT
RJAA 300900Z 05006KT 010V090 9999 FEW030 15/07 Q1012 BECMG 07006KT

今日も、昨日同様に天気が悪いです。
そして、今日も飛行場からの「呟き」に誘われて、飛行場に集うクラブ員数名・・・・cat
パラパラとライセンシーや訓練生が飛んでいます。お昼を食べて、マッタリしていたらmixi
のお友達が遊びに来てくれたので、少し飛ぶことにしました。

Photo
雲を縫って昇って行きます。

Photo_2
VMCを維持して雲の上に出てみます。

2
上は良い天気です。視程もマズマズ!

Photo_3
エンジンを停止してプロペラピッチをフェザーにして滑空します。

Yasu
モグラ初体験のN島さん

Photo_4
16時過ぎには良い天気になりました。日没までまだ3時間弱ありますよ!

Dscn2721s_2
最近、飛行機の事業用を取得したN屋教官(手前)とエアバンド受信機を研究中のMRTさん!

Dscn2722s
最近、彼女のお手製弁当持参で飛行場くるソルジャーマコトさんheart04

続きを読む "モグラを飛ばして、電波も飛ばした週末(笑)"

|

2010年5月18日 (火)

航空神社

仕事帰りに新橋の航空会館に寄って来ました!

Photo
屋上?に航空神社がありました!

|

2010年5月16日 (日)

SF25Bで九十九里!

今日はロイヤーA尾氏のSF25Bに同乗させていただき九十九里まで飛んできました!目的はインターコムにノイズが混入するのでその対策です。コモンモードフィルターを電源系統に入れれば良いのですが、配線を切った貼ったするのは大変なので、まずはフェライトコアを入れて様子を見る事にしましたが、フェライトコアだけで見事にノイズが消えました。提案したのは私だったのでなんだかホッとしました!

Ja20gm

|

2010年5月15日 (土)

うみほたる~三浦半島~江ノ島~六本木~夢の島マリーナ

金曜日にお会いした、ツイッターのお友達が大利根飛行場に遊びに来られたのでG109Bで遊覧飛行に行ってきました。

Dscn2700s
マッコイさんはJA3333で大島まで訓練に出かけるそうです。

Dscn2701s
大利根に常駐するセスナたち!

Photo
ツイッターで知り合ったK本さん。ヨットの達人です。

Dscn2706s
横田APPと通信設定をして江ノ島上空・・・・厚木の進入経路が近いので緊張します。

Dscn2708s
東京TCAの許可をもらってPCAを横切ります。

Photo_2

|

2010年5月14日 (金)

金曜日の夜は鯖のへしこ

金曜日の夜はツイッターで知り合ったお友達に誘われて夢の島マリーナに行って来ました。

Dscn2698s
夜景が綺麗な夢の島マリーナ

Dscn2699s
ヨットの中で鯖のへしこをご馳走になりました。


|

2010年5月 9日 (日)

25B初体験!

今日も朝から良い天気です。

RJAA 082100Z 00000KT CAVOK 14/13 Q1010 NOSIG
RJAA 090000Z 33007KT 300V360 9999 FEW020 BKN/// 21/08 Q1011 NOSIG
RJAA 090300Z 32007KT 220V360 9999 FEW030 BKN/// 23/04 Q1010 NOSIG
RJAA 090600Z 14013KT 9999 FEW030 BKN/// 22/09 Q1009 NOSIG
RJAA 090900Z 12007KT 100V160 9999 FEW030 BKN/// 19/13 Q1011 NOSIG

Photo_2
夫婦仲良く機体を準備します

Photo_3
ホーク鷹野さんはDG500で出撃します~

Photo_4
タブに似た人が新撰組を飛ばします・・・・顔はタブなんだけど・・・・私の知っているタブはもっと痩せています・・・・誰でしょうか?

2
ロイヤーA尾氏の25Bに乗せて頂きました!

1
オーナーさんはうれしそうですね!

Dscn2690s
moguji~さんが、疲れてお休みしていますcat






続きを読む "25B初体験!"

|

2010年5月 8日 (土)

モグラ2機で某飛行場と25B空対空撮影!

当ブログは自家用機パイロットの日常を楽しく可笑しく紹介するものです。
著者に無断で複製、配布、転載する事は固くお断りいたします。(会議の資料としての配布もお断り致します)



5月8日(土) 晴れ!

RJAA 080000Z 10008KT CAVOK 19/09 Q1006 NOSIG
RJAA 080300Z 16007KT CAVOK 21/10 Q1005 NOSIG
RJAA 080400Z 14012KT 120V180 CAVOK 21/10 Q1005 NOSIG
RJTF 080500Z 20012KT 170V230 9999 FEW040 BKN/// 24/10 Q1004
RJTF 080600Z 20013KT 9999 FEW040 BKN/// 22/09 Q1004
RJAA 080700Z 14012KT CAVOK 19/08 Q1005 NOSIG
RJAA 080900Z 17007KT CAVOK 17/09 Q1006 NOSIG

まだGW~って方もいらっしゃると思いますが、2日仕事して週末ってのはリハビリに丁度よかったです(笑)

さて、今日は家の竹を切ったり、洗濯したりして午後から飛行場に顔を出しましたが、連休疲れからかクラブ員は少なめでした。
そんな中、モグラ練習生のO野さんが某飛行場に行ってみたいとリクエストされたので、ご一緒する事になりました。クラブハウスで準備をしていたらJA2373の方達も行ってみたいとの事で2機で行く事になりました。
尚、某飛行場に行く機体は登録制ですので、どの機体でも良い訳ではありませんので大利根飛行場から某に行く場合はスタッフにご相談下さい。

Dscn2612s
週末のクラブハウスはマッタリと時間が過ぎていきます!

Dscn2616s
下総基地をクロコンして都心を目指します

Dscn2618s
右席はO野さんです!

Dscn2621s
都心上空2,500ft~上昇中

Photo
某飛行場内の某カフェは順番待ちができていました

Dscn2626s
羽田空港のPCAを許可を受けて通過します。カッキー教官宅も見えてます!

25b
ロイヤーA尾氏の25Bを空対空で撮影しました!







|

2010年5月 5日 (水)

ごーーーーるでんういーく!最終日~25B耐空検査完了!

RJAA 042100Z 14002KT 3500 BR NSC 16/15 Q1014 NOSIG
RJAA 050000Z VRB02KT 8000 NSC 22/16 Q1014 BECMG 20005KT
RJAA 050300Z 14007KT 080V170 CAVOK 24/15 Q1013 NOSIG
RJAA 050600Z 13009KT CAVOK 24/15 Q1012 NOSIG
RJAA 050900Z 24005KT CAVOK 23/13 Q1013 BECMG 23005KT

GW最終日
今日も天気が良く、暑い位でした!

Dscn2603s
耐空検査員 vs 弁護士・・・・・土下座好き♪

Dscn2606s
耐空検査完了・・・・・・「やめてくれぇ~!」と絶叫するロイヤー(笑)

Dscn2607s
この機体の燃料は日本酒ですscissors

Dscn2597s
飛行場は春爛漫heart04





続きを読む "ごーーーーるでんういーく!最終日~25B耐空検査完了!"

|

2010年5月 4日 (火)

ごーーーーるでんういーく!4日目

RJAA 032100Z 20004KT CAVOK 17/14 Q1015 NOSIG
RJAA 040000Z 22006KT 180V250 CAVOK 21/14 Q1015 NOSIG
RJAA 040300Z 28005KT 210V320 CAVOK 25/14 Q1013 BECMG 18007KT
RJAA 040600Z 24005KT 200V280 CAVOK 25/14 Q1012 BECMG 23005KT
RJAA 040900Z 24003KT 210V280 CAVOK 22/15 Q1012 BECMG 23006KT

今日は、掃除洗濯、竹の子の駆除の為、ノー・フライト・デーでした。

JO1SVO局が熊本空港で上空移動APRSを行っているのを自宅のPCで確認しました。どうやら重たい同乗者が居たようですね?

Jo1svo

RJFF 032100Z 13007KT CAVOK 18/14 Q1017
RJFF 040000Z 15013KT CAVOK 22/14 Q1017
RJFF 040300Z VRB04KT 9999 FEW040 27/13 Q1016


夕方、飛行場の近くに引っ越してきたS本ご夫妻に夕食に招待されたのでタヌcat
同伴でお伺いしたら・・・・・ガスターtyphoonがいました!

ご馳走様でした~cat

 

|

2010年5月 3日 (月)

ごーーーーるでんういーく!3日目は25B進空記念BBQ大会

RJAA 022100Z 17004KT CAVOK 11/09 Q1020 NOSIG
RJAA 030000Z 21006KT 160V240 CAVOK 19/11 Q1020 NOSIG
RJAA 030300Z 16010KT 130V200 9999 FEW040 BKN/// 23/13 Q1019 NOSIG
RJAA 030600Z 21011KT 180V250 CAVOK 23/06 Q1016 WS R16L NOSIG
RJAA 030900Z 20009KT 140V230 CAVOK 20/07 Q1015 NOSIG

今日はロイヤーA尾氏の25B進空記念BBQ大会です!

Dscn2567s
週末度にMyハンガーに通っていたロイヤーA尾氏が・・・・・奥様に悪事がばれて土下座しています(笑)    ガスターtyphoonの笑顔が・・・・以下(略
A尾さまから、コメントに誤りがあるとご指摘をされましたので修正いたします!
亭主関白の名に恥じず、奥様を高圧的支配する風景」
downdowndown
「フライト前に背筋のストレッチをしていたところ、偶然、奥様が目の前にいた、の図」

A尾さまのご指示により変更致しました・・・・・家庭内で何が起こっているのでしょうか??

Dscn2568s
ロイヤーの25B進空記念BBQが盛大に開催されます!

Dscn2569s
鶏の丸焼きと牛モモ肉!

Dscn2571s
豪華!

Dscn2572s
この写真には女性しか写っていませんね!

Dscn2573s
K本さんが久しぶりに新撰組を飛ばすと言うので右席に同乗させて頂きました。

Dscn2582s
昨年の忘年会の景品が赤平さんより手渡されます!

Dscn2583s
ASK13が曳航装置付き動力滑空機に・・・( ^ω^)おっおっおっ








続きを読む "ごーーーーるでんういーく!3日目は25B進空記念BBQ大会"

|

2010年5月 2日 (日)

ごーーーーるでんういーく!2日目

RJAA 012100Z 36003KT 5000 BR NSC 10/09 Q1017 TEMPO 4000 BR
RJAA 020000Z 01004KT 330V060 CAVOK 17/09 Q1018 NOSIG
RJAA 020300Z VRB04KT 9999 FEW040 SCT/// 21/05 Q1017 BECMG 20005KT
RJAA 020600Z 11007KT 060V140 9999 FEW040 21/09 Q1015 NOSIG
RJAA 020900Z 26005KT CAVOK 20/05 Q1017 NOSIG


今日も天気が良いです~
さぁ~GW2日目、行ってみよう!



Dscn2524s

Dscn2526s

Dscn2528s

Dscn2530s

Dscn2536s

Dscn2543s

Moguji

Moguji_2






続きを読む "ごーーーーるでんういーく!2日目"

|

2010年5月 1日 (土)

ごーーーーるでんういーく!

RJAA 302100Z VRB01KT 9999 FEW030 09/07 Q1014 NOSIG
RJAA 010000Z 27004KT 9999 FEW030 16/03 Q1014 NOSIG
RJAA 010300Z 19003KT 110V260 9999 FEW040 18/02 Q1013 NOSIG
RJAA 010600Z 14010KT 100V200 9999 FEW040 19/06 Q1012 NOSIG
RJAA 010900Z 14006KT CAVOK 16/04 Q1013 NOSIG

今日からGWが始まります!
大利根飛行場は曳航機がお休み中なので、グライダーで遊べないと悲しんでいましたが、愛さんが関宿滑空場から1日だけ借りて来てくれました。

グライダー練習生からオーナーまでグライダー屋が集結します!

Dscn2499s
滑空場らしくなってきました!

Dscn2502s
久しぶりにヤンターで飛びました!ヤンターの曳航中は視界が悪いぃ~!

Dscn2510s
今日は大利根周辺はグライダー天国でした・・・・

Dscn2519s
2時間以上飛べたので次の人に代わります!

Dscn2522s
もちろん、グライダーの訓練も行われます!


Dscn2523s_2
SZD55の新オーナー、M田さんは愛機で5時間オーバーで嬉しそうです!
「えぇ~い!今日は俺のおごりだぁ~beer」・・・・ごちそう様でした!

20100501aprs
結局、獲得高度は6,000ft!愛さんから「取手まで行って来い!」と言われて初めてお外に・・・・取手上空3,000ftは心細かった!

続きを読む "ごーーーーるでんういーく!"

|

« 2010年4月 | トップページ | 2010年6月 »